Time;durP1;ratioP1;P1;durP2;ratioP2;P2;SDS_P1;SDS_P2;PMS_P1;PMS_P2;Temp;Humidity;BMP_temperature;BMP_pressure;BME280_temperature;BME280_humidity;BME280_pressure;Samples;Min_cycle;Max_cycle;Signal;HPM_P1;HPM_P2
2023/06/05 00:01:18;;;;;;;7.03;4.78;;;16.00;99.90;;;;;;4977345;28;20030;-79
2023/06/05 00:03:44;;;;;;;11.98;4.65;;;16.00;99.90;;;;;;4977555;28;20022;-79
2023/06/05 00:06:10;;;;;;;8.57;5.38;;;16.00;99.90;;;;;;4977274;28;20026;-79
2023/06/05 00:08:36;;;;;;;8.68;4.60;;;16.00;99.90;;;;;;4977552;28;20129;-79
2023/06/05 00:11:01;;;;;;;7.53;5.18;;;16.00;99.90;;;;;;4977299;28;20062;-79
2023/06/05 00:13:27;;;;;;;9.13;5.05;;;16.00;99.90;;;;;;4977260;28;20165;-79
2023/06/05 00:15:53;;;;;;;6.63;4.38;;;16.00;99.90;;;;;;4975875;28;20402;-79
2023/06/05 00:18:19;;;;;;;6.88;4.50;;;16.00;99.90;;;;;;4959144;28;21350;-79
2023/06/05 00:20:44;;;;;;;6.13;4.68;;;15.90;99.90;;;;;;4976895;28;20418;-79
2023/06/05 00:23:13;;;;;;;6.63;4.65;;;15.90;99.90;;;;;;4976787;28;20034;-79
2023/06/05 00:25:39;;;;;;;6.50;4.65;;;15.90;99.90;;;;;;4975464;28;20034;-79
2023/06/05 00:28:04;;;;;;;8.68;4.80;;;15.90;99.90;;;;;;4979837;28;20033;-79
2023/06/05 00:30:30;;;;;;;8.48;4.82;;;15.80;99.90;;;;;;4979970;28;20102;-79
2023/06/05 00:32:56;;;;;;;7.78;5.45;;;15.80;99.90;;;;;;4979165;28;20026;-79
2023/06/05 00:35:21;;;;;;;8.48;4.72;;;15.80;99.90;;;;;;4979897;28;20046;-79
2023/06/05 00:37:47;;;;;;;9.50;5.22;;;15.80;99.90;;;;;;4979779;28;20523;-80
2023/06/05 00:40:13;;;;;;;7.10;4.55;;;15.70;99.90;;;;;;4980065;28;20667;-79
2023/06/05 00:42:38;;;;;;;8.90;5.32;;;15.80;99.90;;;;;;4980230;28;20027;-79
2023/06/05 00:45:04;;;;;;;11.52;4.95;;;15.70;99.90;;;;;;4980222;28;20092;-79
2023/06/05 00:47:31;;;;;;;9.02;5.35;;;15.70;99.90;;;;;;4980146;28;20260;-79
2023/06/05 00:49:57;;;;;;;12.27;5.75;;;15.60;99.90;;;;;;4981090;28;20030;-79
2023/06/05 00:52:23;;;;;;;9.68;5.55;;;15.60;99.90;;;;;;4980600;28;20033;-79
2023/06/05 00:54:49;;;;;;;10.23;5.03;;;15.60;99.90;;;;;;4979938;28;20399;-79
2023/06/05 00:57:15;;;;;;;8.30;5.25;;;15.60;99.90;;;;;;4979444;28;20505;-79
2023/06/05 00:59:44;;;;;;;8.85;5.28;;;15.60;99.90;;;;;;4979996;28;20029;-79
2023/06/05 01:02:12;;;;;;;12.13;5.57;;;15.60;99.90;;;;;;4980688;28;20113;-79
2023/06/05 01:04:40;;;;;;;7.80;5.80;;;15.60;99.90;;;;;;4980800;28;20030;-79
2023/06/05 01:07:07;;;;;;;7.28;5.38;;;15.50;99.90;;;;;;4978996;28;20030;-79
2023/06/05 01:09:32;;;;;;;9.25;5.95;;;15.50;99.90;;;;;;4978787;28;20486;-79
2023/06/05 01:12:08;;;;;;;9.05;6.07;;;15.50;99.90;;;;;;4980567;28;20026;-79
2023/06/05 01:14:36;;;;;;;10.15;6.05;;;15.50;99.90;;;;;;4980980;28;20081;-79
2023/06/05 01:17:03;;;;;;;10.55;6.63;;;15.40;99.90;;;;;;4979551;28;20402;-79
2023/06/05 01:19:30;;;;;;;7.82;6.00;;;15.50;99.90;;;;;;4980025;28;20113;-79
2023/06/05 01:21:57;;;;;;;11.32;6.63;;;15.40;99.90;;;;;;4980773;28;20044;-79
2023/06/05 01:24:22;;;;;;;12.65;6.80;;;15.40;99.90;;;;;;4977925;28;20073;-79
2023/06/05 01:27:24;;;;;;;11.32;6.65;;;15.30;99.90;;;;;;4979354;28;20216;-79
2023/06/05 01:30:03;;;;;;;13.20;7.50;;;15.40;99.90;;;;;;4947494;28;20080;-79
2023/06/05 01:32:37;;;;;;;10.45;7.25;;;15.30;99.90;;;;;;4979061;28;20029;-79
2023/06/05 01:35:08;;;;;;;8.40;7.00;;;15.30;99.90;;;;;;4978508;28;20058;-79
2023/06/05 01:37:40;;;;;;;10.73;7.72;;;15.20;99.90;;;;;;4979191;28;20042;-79
2023/06/05 01:40:14;;;;;;;11.10;7.45;;;15.20;99.90;;;;;;4979351;28;20097;-79
2023/06/05 01:42:42;;;;;;;10.27;6.82;;;15.20;99.90;;;;;;4978023;28;20030;-79
2023/06/05 01:45:10;;;;;;;12.30;7.13;;;15.20;99.90;;;;;;4978479;28;20172;-79
2023/06/05 01:47:37;;;;;;;11.02;6.72;;;15.20;99.90;;;;;;4980138;28;20030;-79
2023/06/05 01:50:03;;;;;;;10.68;7.05;;;15.20;99.90;;;;;;4979456;28;20402;-79
2023/06/05 01:52:29;;;;;;;10.38;7.20;;;15.10;99.90;;;;;;4979791;28;20030;-79
2023/06/05 01:54:59;;;;;;;11.35;6.97;;;15.10;99.90;;;;;;4978550;28;20093;-79
2023/06/05 01:57:27;;;;;;;9.77;6.90;;;15.10;99.90;;;;;;4978697;28;20034;-79
2023/06/05 01:59:53;;;;;;;9.93;6.80;;;15.00;99.90;;;;;;4978723;28;20093;-79
2023/06/05 02:02:18;;;;;;;9.35;7.07;;;15.00;99.90;;;;;;4980001;28;20475;-79
2023/06/05 02:04:47;;;;;;;9.00;6.90;;;14.90;99.90;;;;;;4976954;28;20027;-79
2023/06/05 02:07:14;;;;;;;9.30;6.85;;;14.90;99.90;;;;;;4979110;28;20172;-79
2023/06/05 02:09:40;;;;;;;11.90;7.82;;;14.90;99.90;;;;;;4979313;28;20115;-79
2023/06/05 02:12:07;;;;;;;12.23;7.25;;;14.90;99.90;;;;;;4978760;28;20033;-79
2023/06/05 02:14:35;;;;;;;11.48;7.78;;;14.90;99.90;;;;;;4979438;28;20038;-79
2023/06/05 02:17:06;;;;;;;12.77;7.45;;;14.80;99.90;;;;;;4977973;28;20507;-79
2023/06/05 02:19:32;;;;;;;12.27;7.95;;;14.80;99.90;;;;;;4977910;28;20030;-79
2023/06/05 02:21:57;;;;;;;10.45;7.88;;;14.80;99.90;;;;;;4978979;28;21062;-79
2023/06/05 02:24:23;;;;;;;12.65;8.27;;;14.70;99.90;;;;;;4978459;28;20165;-79
2023/06/05 02:26:49;;;;;;;12.40;7.65;;;14.70;99.90;;;;;;4978923;28;20031;-79
2023/06/05 02:29:14;;;;;;;13.50;7.55;;;14.70;99.90;;;;;;4978423;28;20036;-79
2023/06/05 02:31:40;;;;;;;11.75;7.43;;;14.70;99.90;;;;;;4978130;28;20118;-78
2023/06/05 02:34:05;;;;;;;12.13;8.20;;;14.70;99.90;;;;;;4977310;28;20061;-79
2023/06/05 02:36:32;;;;;;;13.13;7.78;;;14.70;99.90;;;;;;4977799;28;20054;-79
2023/06/05 02:38:59;;;;;;;9.95;7.97;;;14.70;99.90;;;;;;4978768;28;20109;-79
2023/06/05 02:41:26;;;;;;;12.70;7.65;;;14.60;99.90;;;;;;4977288;28;20503;-79
2023/06/05 02:43:55;;;;;;;14.40;7.47;;;14.60;99.90;;;;;;4978723;28;20110;-79
2023/06/05 02:46:21;;;;;;;11.40;7.85;;;14.60;99.90;;;;;;4978421;28;20040;-79
2023/06/05 02:48:47;;;;;;;11.13;7.78;;;14.60;99.90;;;;;;4976581;28;20578;-79
2023/06/05 02:51:13;;;;;;;11.15;7.88;;;14.60;99.90;;;;;;4978421;28;20207;-79
2023/06/05 02:53:39;;;;;;;17.80;8.20;;;14.50;99.90;;;;;;4978100;28;20494;-79
2023/06/05 02:56:05;;;;;;;9.57;7.60;;;14.50;99.90;;;;;;4977395;28;20034;-79
2023/06/05 02:58:33;;;;;;;12.35;7.80;;;14.50;99.90;;;;;;4978345;28;20031;-79
2023/06/05 03:01:01;;;;;;;15.02;8.88;;;14.40;99.90;;;;;;4978027;28;20034;-80
2023/06/05 03:03:29;;;;;;;11.75;8.05;;;14.40;99.90;;;;;;4977491;28;20042;-79
2023/06/05 03:05:56;;;;;;;12.00;8.00;;;14.30;99.90;;;;;;4976644;28;20030;-79
2023/06/05 03:08:22;;;;;;;11.90;7.70;;;14.30;99.90;;;;;;4977963;28;20041;-79
2023/06/05 03:10:47;;;;;;;13.32;7.97;;;14.30;99.90;;;;;;4977876;28;20038;-79
2023/06/05 03:13:13;;;;;;;10.05;7.82;;;14.30;99.90;;;;;;4978068;28;20035;-79
2023/06/05 03:15:39;;;;;;;13.68;8.05;;;14.30;99.90;;;;;;4975838;28;20042;-79
2023/06/05 03:18:05;;;;;;;10.80;8.43;;;14.30;99.90;;;;;;4976348;28;20035;-79
2023/06/05 03:20:30;;;;;;;11.13;8.25;;;14.30;99.90;;;;;;4978144;28;20506;-79
2023/06/05 03:22:56;;;;;;;14.68;8.55;;;14.20;99.90;;;;;;4977781;28;20065;-79
2023/06/05 03:25:22;;;;;;;10.38;8.18;;;14.20;99.90;;;;;;4977534;28;20065;-79
2023/06/05 03:27:49;;;;;;;16.40;8.20;;;14.20;99.90;;;;;;4977346;28;20031;-79
2023/06/05 03:30:18;;;;;;;12.20;8.95;;;14.20;99.90;;;;;;4977792;28;20112;-79
2023/06/05 03:32:44;;;;;;;12.05;8.73;;;14.20;99.90;;;;;;4977062;28;20034;-79
2023/06/05 03:35:09;;;;;;;23.58;8.88;;;14.20;99.90;;;;;;4977439;28;20039;-79
2023/06/05 03:37:35;;;;;;;12.77;8.98;;;14.20;99.90;;;;;;4976429;28;20085;-79
2023/06/05 03:40:01;;;;;;;12.25;7.97;;;14.20;99.90;;;;;;4976525;28;20049;-79
2023/06/05 03:42:27;;;;;;;12.07;8.25;;;14.20;99.90;;;;;;4977241;28;20138;-79
2023/06/05 03:44:52;;;;;;;9.85;7.90;;;14.20;99.90;;;;;;4977505;28;20036;-79
2023/06/05 03:47:20;;;;;;;13.80;8.15;;;14.20;99.90;;;;;;4976887;28;20022;-79
2023/06/05 03:49:47;;;;;;;12.05;9.05;;;14.10;99.90;;;;;;4976743;28;20095;-79
2023/06/05 03:52:14;;;;;;;13.02;8.65;;;14.10;99.90;;;;;;4976174;28;20041;-79
2023/06/05 03:54:40;;;;;;;21.02;8.77;;;14.10;99.90;;;;;;4977298;28;20121;-79
2023/06/05 03:57:09;;;;;;;10.55;8.40;;;14.10;99.90;;;;;;4976960;28;20487;-79
2023/06/05 03:59:35;;;;;;;13.00;8.40;;;14.10;99.90;;;;;;4978038;28;20233;-79
2023/06/05 04:02:02;;;;;;;13.18;8.80;;;14.10;99.90;;;;;;4975042;28;20193;-79
2023/06/05 04:04:27;;;;;;;20.80;8.90;;;14.10;99.90;;;;;;4975778;28;20446;-78
2023/06/05 04:06:55;;;;;;;13.43;9.25;;;14.00;99.90;;;;;;4976542;28;20109;-79
2023/06/05 04:09:20;;;;;;;11.13;7.88;;;14.00;99.90;;;;;;4975518;28;20034;-79
2023/06/05 04:11:47;;;;;;;12.45;9.23;;;14.10;99.90;;;;;;4977396;28;20034;-79
2023/06/05 04:14:13;;;;;;;12.85;9.07;;;14.00;99.90;;;;;;4976529;28;20031;-79
2023/06/05 04:16:40;;;;;;;12.05;9.13;;;14.00;99.90;;;;;;4975037;28;20527;-79
2023/06/05 04:19:07;;;;;;;11.68;8.93;;;14.00;99.90;;;;;;4976175;28;20114;-79
2023/06/05 04:21:35;;;;;;;15.32;9.65;;;14.00;99.90;;;;;;4974284;28;20062;-79
2023/06/05 04:24:07;;;;;;;12.85;9.02;;;14.00;99.90;;;;;;4976191;28;20042;-80
2023/06/05 04:26:41;;;;;;;11.13;8.70;;;14.00;99.90;;;;;;4977339;28;20022;-80
2023/06/05 04:29:13;;;;;;;12.98;8.20;;;14.00;99.90;;;;;;4977037;28;20428;-79
2023/06/05 04:31:40;;;;;;;12.35;9.73;;;14.00;99.90;;;;;;4977467;28;20498;-80
2023/06/05 04:34:07;;;;;;;11.40;8.93;;;14.00;99.90;;;;;;4976253;28;20113;-80
2023/06/05 04:36:34;;;;;;;15.57;9.15;;;14.00;99.90;;;;;;4976625;28;21487;-80
2023/06/05 04:39:01;;;;;;;11.15;8.57;;;14.00;99.90;;;;;;4978815;28;20041;-79
2023/06/05 04:41:28;;;;;;;12.57;8.13;;;14.00;99.90;;;;;;4977724;28;20359;-79
2023/06/05 04:43:54;;;;;;;12.48;8.75;;;14.00;99.90;;;;;;4977042;28;20041;-79
2023/06/05 04:46:20;;;;;;;12.40;8.50;;;14.00;99.90;;;;;;4977228;28;20039;-80
2023/06/05 04:48:45;;;;;;;14.43;9.10;;;14.10;99.90;;;;;;4976684;28;20040;-80
2023/06/05 04:51:11;;;;;;;13.43;9.10;;;14.20;99.90;;;;;;4977528;28;20171;-80
2023/06/05 04:53:37;;;;;;;14.52;8.50;;;14.30;99.90;;;;;;4976889;28;20458;-80
2023/06/05 04:56:03;;;;;;;11.68;9.60;;;14.30;99.90;;;;;;4978245;28;20061;-79
2023/06/05 04:58:28;;;;;;;13.45;9.32;;;14.40;99.90;;;;;;4979695;28;20843;-82
2023/06/05 05:00:55;;;;;;;14.95;8.80;;;14.50;99.90;;;;;;4979004;28;20037;-82
2023/06/05 05:03:20;;;;;;;14.85;9.18;;;14.50;99.90;;;;;;4976343;28;20037;-82
2023/06/05 05:05:46;;;;;;;13.82;9.15;;;14.60;99.90;;;;;;4968746;28;20043;-73
2023/06/05 05:08:12;;;;;;;10.98;8.52;;;14.70;99.90;;;;;;4969805;28;20023;-74
2023/06/05 05:10:37;;;;;;;15.70;9.30;;;14.70;99.90;;;;;;4974552;28;20077;-73
2023/06/05 05:13:03;;;;;;;13.15;8.98;;;14.80;99.90;;;;;;4974820;28;20030;-73
2023/06/05 05:15:28;;;;;;;12.57;8.35;;;14.90;99.90;;;;;;4976786;28;20048;-73
2023/06/05 05:17:56;;;;;;;12.77;8.85;;;14.90;99.90;;;;;;4978869;28;20085;-74
2023/06/05 05:20:22;;;;;;;14.15;9.73;;;15.00;99.90;;;;;;4978285;28;20537;-74
2023/06/05 05:22:48;;;;;;;20.55;9.60;;;15.10;99.90;;;;;;4977367;28;20064;-74
2023/06/05 05:25:14;;;;;;;11.88;9.70;;;15.20;99.90;;;;;;4978159;28;20034;-74
2023/06/05 05:27:39;;;;;;;14.95;9.57;;;15.30;99.90;;;;;;4979669;28;20030;-73
2023/06/05 05:30:07;;;;;;;14.35;10.10;;;15.40;99.90;;;;;;4979301;28;20109;-81
2023/06/05 05:32:32;;;;;;;16.20;9.65;;;15.40;99.90;;;;;;4980842;28;20042;-82
2023/06/05 05:34:58;;;;;;;17.77;9.68;;;15.50;99.90;;;;;;4981438;28;20026;-81
2023/06/05 05:37:25;;;;;;;13.45;8.57;;;15.50;99.90;;;;;;4981073;28;20031;-83
2023/06/05 05:39:51;;;;;;;15.07;10.00;;;15.60;99.90;;;;;;4981868;28;20066;-82
2023/06/05 05:42:17;;;;;;;15.15;9.63;;;15.70;99.90;;;;;;4982319;28;20053;-82
2023/06/05 05:44:43;;;;;;;14.63;8.98;;;15.80;99.90;;;;;;4982267;28;20022;-81
2023/06/05 05:47:10;;;;;;;14.30;9.57;;;15.80;99.90;;;;;;4979486;28;20047;-82
2023/06/05 05:49:36;;;;;;;13.90;9.38;;;15.90;99.90;;;;;;4981180;28;20712;-82
2023/06/05 05:52:01;;;;;;;11.20;8.95;;;16.00;99.90;;;;;;4978933;28;20026;-82
2023/06/05 05:54:27;;;;;;;14.65;9.57;;;16.10;99.90;;;;;;4980612;28;20031;-82
2023/06/05 05:56:53;;;;;;;14.65;9.80;;;16.20;99.90;;;;;;4961855;28;20035;-82
2023/06/05 05:59:19;;;;;;;12.85;9.55;;;16.20;99.90;;;;;;4980112;28;20019;-82
2023/06/05 06:01:45;;;;;;;14.88;9.13;;;16.30;99.90;;;;;;4978572;28;20042;-87
2023/06/05 06:04:11;;;;;;;15.90;8.52;;;16.30;99.90;;;;;;4968994;28;20030;-87
2023/06/05 06:06:39;;;;;;;15.23;9.68;;;16.40;99.90;;;;;;4973164;28;20077;-86
2023/06/05 06:09:07;;;;;;;14.50;8.90;;;16.40;99.90;;;;;;4975594;28;20041;-86
2023/06/05 06:11:33;;;;;;;17.15;8.82;;;16.50;99.90;;;;;;4975245;28;20109;-86
2023/06/05 06:13:59;;;;;;;16.13;9.75;;;16.50;99.90;;;;;;4973165;28;21534;-88
2023/06/05 06:16:25;;;;;;;17.42;9.35;;;16.60;99.90;;;;;;4976468;28;20041;-86
2023/06/05 06:18:51;;;;;;;14.23;10.25;;;16.60;99.90;;;;;;4975428;28;20047;-87
2023/06/05 06:21:18;;;;;;;15.90;9.52;;;16.60;99.90;;;;;;4975155;28;20383;-86
2023/06/05 06:23:44;;;;;;;15.65;10.13;;;16.70;99.90;;;;;;4975035;28;20263;-86
2023/06/05 06:26:11;;;;;;;13.27;9.55;;;16.70;99.90;;;;;;4975783;28;20030;-86
2023/06/05 06:28:37;;;;;;;15.18;9.65;;;16.70;99.90;;;;;;4979318;28;20462;-87
2023/06/05 06:31:03;;;;;;;13.57;9.52;;;16.70;99.90;;;;;;4982245;28;20061;-86
2023/06/05 06:33:29;;;;;;;13.38;9.30;;;16.80;99.90;;;;;;4991557;28;20034;-87
2023/06/05 06:35:55;;;;;;;13.05;8.48;;;16.90;99.90;;;;;;4983827;28;20046;-87
2023/06/05 06:38:20;;;;;;;14.02;9.18;;;17.10;99.90;;;;;;4976923;28;20821;-86
2023/06/05 06:40:46;;;;;;;14.10;8.60;;;17.30;99.90;;;;;;4971804;28;20056;-87
2023/06/05 06:43:12;;;;;;;13.65;7.65;;;17.40;99.90;;;;;;4972011;28;20104;-87
2023/06/05 06:45:37;;;;;;;15.38;8.10;;;17.50;99.90;;;;;;4975703;28;20035;-86
2023/06/05 06:48:03;;;;;;;13.57;8.10;;;17.70;99.90;;;;;;4976422;28;20129;-86
2023/06/05 06:50:29;;;;;;;13.93;7.45;;;17.80;99.90;;;;;;4975125;28;20045;-86
2023/06/05 06:52:54;;;;;;;12.82;7.22;;;18.00;99.90;;;;;;4973983;28;20040;-87
2023/06/05 06:55:20;;;;;;;9.00;7.20;;;18.00;99.90;;;;;;4975723;28;20044;-88
2023/06/05 06:57:46;;;;;;;11.10;6.07;;;18.10;99.90;;;;;;4973783;28;20050;-88
2023/06/05 07:00:12;;;;;;;9.10;6.55;;;18.20;99.90;;;;;;4970899;28;20482;-86
2023/06/05 07:02:40;;;;;;;12.93;6.70;;;18.30;99.90;;;;;;4949625;28;20034;-88
2023/06/05 07:05:06;;;;;;;10.18;6.55;;;18.40;99.90;;;;;;4973087;28;20129;-87
2023/06/05 07:07:31;;;;;;;10.70;6.68;;;18.60;99.90;;;;;;4972755;28;20052;-86
2023/06/05 07:09:58;;;;;;;10.43;5.88;;;18.70;99.90;;;;;;4973900;28;20040;-88
2023/06/05 07:12:23;;;;;;;9.93;6.60;;;18.70;99.90;;;;;;4971865;28;20561;-87
2023/06/05 07:14:49;;;;;;;11.52;6.50;;;18.80;99.90;;;;;;4971678;28;20045;-84
2023/06/05 07:17:15;;;;;;;8.95;6.03;;;18.90;99.90;;;;;;4971668;28;20138;-85
2023/06/05 07:19:41;;;;;;;13.00;7.45;;;19.00;99.90;;;;;;4974049;28;20421;-85
2023/06/05 07:22:06;;;;;;;10.70;6.47;;;19.10;99.90;;;;;;4972850;28;20030;-83
2023/06/05 07:24:35;;;;;;;9.23;6.32;;;19.20;99.90;;;;;;4973692;28;20045;-85
2023/06/05 07:27:02;;;;;;;8.30;6.80;;;19.30;99.90;;;;;;4973228;28;20085;-83
2023/06/05 07:29:27;;;;;;;11.75;6.40;;;19.30;99.90;;;;;;4971511;28;20119;-84
2023/06/05 07:31:55;;;;;;;7.82;5.10;;;19.30;99.90;;;;;;4970632;28;20493;-83
2023/06/05 07:34:22;;;;;;;8.07;5.95;;;19.30;99.90;;;;;;4972999;28;20069;-83
2023/06/05 07:36:50;;;;;;;7.88;5.68;;;19.30;99.90;;;;;;4974188;28;20046;-84
2023/06/05 07:39:16;;;;;;;11.48;6.00;;;19.30;99.90;;;;;;4973283;28;20073;-84
2023/06/05 07:41:42;;;;;;;10.93;6.15;;;19.30;99.90;;;;;;4974632;28;20056;-83
2023/06/05 07:44:10;;;;;;;12.05;7.10;;;19.30;99.90;;;;;;4976297;28;20399;-83
2023/06/05 07:46:36;;;;;;;11.63;6.43;;;19.40;99.90;;;;;;4972008;28;20074;-84
2023/06/05 07:49:01;;;;;;;10.80;6.30;;;19.40;99.90;;;;;;4972288;28;20153;-78
2023/06/05 07:51:27;;;;;;;11.40;6.70;;;19.40;99.90;;;;;;4970177;28;20030;-74
2023/06/05 07:53:52;;;;;;;9.48;6.65;;;19.40;99.90;;;;;;4971257;28;20690;-73
2023/06/05 07:56:18;;;;;;;9.65;6.40;;;19.30;99.90;;;;;;4972145;28;20078;-73
2023/06/05 07:58:43;;;;;;;12.60;6.93;;;19.30;99.90;;;;;;4972379;28;20030;-75
2023/06/05 08:01:11;;;;;;;8.88;6.72;;;19.30;99.90;;;;;;4970509;28;20034;-74
2023/06/05 08:03:37;;;;;;;11.82;7.25;;;19.30;99.90;;;;;;4971526;28;20102;-74
2023/06/05 08:06:03;;;;;;;10.10;6.75;;;19.30;99.90;;;;;;4972923;28;20967;-75
2023/06/05 08:08:29;;;;;;;11.02;6.70;;;19.20;99.90;;;;;;4973617;28;20034;-73
2023/06/05 08:10:55;;;;;;;8.75;6.88;;;19.30;99.90;;;;;;4970722;28;20116;-73
2023/06/05 08:13:21;;;;;;;11.43;6.30;;;19.40;99.90;;;;;;4971498;28;20097;-73
2023/06/05 08:15:46;;;;;;;11.85;7.35;;;19.50;99.90;;;;;;4968517;28;20605;-74
2023/06/05 08:18:12;;;;;;;12.07;6.85;;;19.60;99.90;;;;;;4972123;28;20027;-73
2023/06/05 08:20:37;;;;;;;11.00;6.95;;;19.70;99.90;;;;;;4971981;28;20066;-74
2023/06/05 08:23:05;;;;;;;9.15;6.68;;;19.80;99.90;;;;;;4970765;28;20042;-74
2023/06/05 08:25:31;;;;;;;10.38;6.63;;;20.00;99.90;;;;;;4971110;28;20145;-74
2023/06/05 08:27:56;;;;;;;14.88;6.78;;;20.10;99.90;;;;;;4970477;28;20031;-73
2023/06/05 08:30:22;;;;;;;13.27;6.47;;;20.10;99.90;;;;;;4969773;28;20030;-73
2023/06/05 08:32:47;;;;;;;12.00;6.32;;;20.10;99.90;;;;;;4969687;28;20064;-73
2023/06/05 08:35:13;;;;;;;10.25;7.10;;;20.20;99.90;;;;;;4968495;28;20041;-73
2023/06/05 08:37:39;;;;;;;10.38;6.55;;;20.20;99.90;;;;;;4971226;28;20034;-74
2023/06/05 08:40:10;;;;;;;11.40;6.25;;;20.30;99.90;;;;;;4971830;28;20113;-75
2023/06/05 08:42:37;;;;;;;7.68;5.88;;;20.30;99.90;;;;;;4969444;28;20135;-75
2023/06/05 08:45:12;;;;;;;8.77;5.85;;;20.30;99.90;;;;;;4970654;28;20037;-75
2023/06/05 08:47:38;;;;;;;9.63;6.63;;;20.40;99.90;;;;;;4972535;28;20617;-73
2023/06/05 08:50:08;;;;;;;9.80;6.50;;;20.40;99.90;;;;;;4973224;28;20149;-74
2023/06/05 08:52:35;;;;;;;12.45;6.05;;;20.50;99.90;;;;;;4973725;28;20876;-74
2023/06/05 08:55:03;;;;;;;11.68;6.28;;;20.60;99.90;;;;;;4971243;28;20136;-76
2023/06/05 08:57:28;;;;;;;8.60;6.30;;;20.50;99.90;;;;;;4974763;28;20046;-74
2023/06/05 08:59:54;;;;;;;11.10;6.40;;;20.60;99.90;;;;;;4972649;28;20037;-74
2023/06/05 09:02:20;;;;;;;11.10;6.53;;;20.60;99.90;;;;;;4970427;28;20251;-74
2023/06/05 09:04:46;;;;;;;9.80;6.43;;;20.80;99.90;;;;;;4971572;28;20018;-75
2023/06/05 09:07:12;;;;;;;9.70;5.38;;;20.80;99.90;;;;;;4973369;28;20541;-74
2023/06/05 09:09:38;;;;;;;9.48;5.70;;;20.90;99.90;;;;;;4976324;28;20031;-75
2023/06/05 09:12:05;;;;;;;10.73;7.40;;;21.00;99.90;;;;;;4974306;28;20041;-75
2023/06/05 09:14:31;;;;;;;8.05;5.88;;;21.10;99.90;;;;;;4975841;28;20030;-74
2023/06/05 09:16:57;;;;;;;7.05;5.60;;;21.20;99.90;;;;;;4975618;28;20442;-75
2023/06/05 09:19:27;;;;;;;8.63;5.00;;;21.10;99.90;;;;;;4975744;28;20042;-74
2023/06/05 09:21:54;;;;;;;7.85;5.60;;;21.10;99.90;;;;;;4975321;28;20521;-75
2023/06/05 09:24:22;;;;;;;8.25;5.70;;;21.10;99.90;;;;;;4977343;28;20041;-74
2023/06/05 09:27:01;;;;;;;6.82;5.25;;;21.20;99.90;;;;;;4976061;28;20033;-74
2023/06/05 09:29:29;;;;;;;8.50;5.60;;;21.40;99.90;;;;;;4975857;28;20038;-74
2023/06/05 09:31:57;;;;;;;9.27;5.40;;;21.40;99.90;;;;;;4973727;28;20103;-73
2023/06/05 09:34:27;;;;;;;8.80;5.45;;;21.60;99.90;;;;;;4975082;28;20030;-74
2023/06/05 09:36:54;;;;;;;9.48;5.63;;;21.50;99.90;;;;;;4975812;28;20151;-74
2023/06/05 09:39:21;;;;;;;8.25;5.53;;;21.80;99.90;;;;;;4975813;28;20145;-74
2023/06/05 09:41:48;;;;;;;6.18;4.80;;;21.90;99.90;;;;;;4974719;28;21519;-74
2023/06/05 09:44:14;;;;;;;8.60;5.28;;;22.20;99.90;;;;;;4975776;28;20030;-75
2023/06/05 09:47:09;;;;;;;8.30;5.45;;;22.60;99.90;;;;;;4976544;28;20037;-74
2023/06/05 09:49:40;;;;;;;6.65;4.70;;;23.00;99.90;;;;;;4954394;28;20082;-73
2023/06/05 09:52:08;;;;;;;12.70;5.43;;;23.10;99.90;;;;;;4978038;28;20064;-74
2023/06/05 09:54:36;;;;;;;11.27;5.20;;;23.20;99.90;;;;;;4979035;28;20394;-74
2023/06/05 09:57:08;;;;;;;8.95;5.97;;;23.40;99.90;;;;;;4977886;28;20105;-75
2023/06/05 09:59:41;;;;;;;10.70;5.30;;;23.60;99.90;;;;;;4972903;28;20022;-74
2023/06/05 10:02:08;;;;;;;7.40;5.38;;;24.00;99.90;;;;;;4976217;28;20038;-74
2023/06/05 10:04:47;;;;;;;12.65;5.72;;;24.10;99.90;;;;;;4973970;28;20120;-73
2023/06/05 10:07:14;;;;;;;8.23;5.68;;;24.10;99.90;;;;;;4974967;28;20483;-74
2023/06/05 10:09:41;;;;;;;9.18;5.53;;;24.00;99.90;;;;;;4977276;28;20065;-75
2023/06/05 10:12:08;;;;;;;9.48;5.68;;;23.90;99.90;;;;;;4974806;28;20035;-74
2023/06/05 10:14:41;;;;;;;13.45;6.25;;;23.90;99.90;;;;;;4975268;28;20532;-74
2023/06/05 10:17:06;;;;;;;8.63;5.50;;;23.90;99.90;;;;;;4976254;28;20526;-75
2023/06/05 10:19:32;;;;;;;7.65;5.18;;;24.10;99.90;;;;;;4975028;28;20118;-75
2023/06/05 10:21:58;;;;;;;7.82;5.10;;;24.20;99.90;;;;;;4976124;28;20046;-75
2023/06/05 10:24:36;;;;;;;7.90;5.18;;;24.40;99.90;;;;;;4976958;28;20023;-82
2023/06/05 10:27:11;;;;;;;9.52;5.35;;;24.60;99.90;;;;;;4981130;28;20077;-81
2023/06/05 10:30:07;;;;;;;8.27;5.35;;;24.80;99.90;;;;;;4980626;28;20303;-81
2023/06/05 10:33:03;;;;;;;8.15;4.40;;;25.00;99.90;;;;;;4983245;28;20057;-82
2023/06/05 10:35:52;;;;;;;6.70;5.05;;;24.80;99.90;;;;;;4981105;28;20038;-82
2023/06/05 10:38:25;;;;;;;9.43;5.40;;;24.40;99.90;;;;;;4978123;28;20100;-75
2023/06/05 10:40:58;;;;;;;8.70;5.35;;;24.20;99.90;;;;;;4977484;28;20030;-75
2023/06/05 10:43:25;;;;;;;7.32;4.88;;;24.30;99.90;;;;;;4978378;28;20030;-75
2023/06/05 10:45:50;;;;;;;6.53;5.00;;;24.50;99.90;;;;;;4972530;28;20133;-75
2023/06/05 10:48:16;;;;;;;10.52;5.60;;;24.70;99.90;;;;;;4973917;28;20022;-76
2023/06/05 10:50:42;;;;;;;7.88;5.22;;;25.00;99.90;;;;;;4975040;28;20026;-75
2023/06/05 10:53:45;;;;;;;7.20;5.57;;;25.10;99.90;;;;;;4972802;28;20066;-75
2023/06/05 10:56:49;;;;;;;11.25;5.28;;;25.30;99.90;;;;;;4974993;28;20043;-75
2023/06/05 10:59:15;;;;;;;9.63;5.40;;;25.30;99.90;;;;;;4970647;28;20047;-75
2023/06/05 11:01:41;;;;;;;9.50;5.13;;;25.10;99.90;;;;;;4971814;28;20042;-75
2023/06/05 11:04:07;;;;;;;10.65;5.25;;;24.90;99.90;;;;;;4972135;28;20037;-75
2023/06/05 11:06:32;;;;;;;8.07;5.55;;;25.10;99.90;;;;;;4974190;28;20026;-75
2023/06/05 11:09:12;;;;;;;6.28;4.90;;;25.50;99.90;;;;;;4967069;28;20062;-75
2023/06/05 11:11:57;;;;;;;9.45;4.55;;;25.60;99.90;;;;;;4976066;28;20034;-75
2023/06/05 11:14:24;;;;;;;7.53;5.03;;;25.80;99.90;;;;;;4977107;28;20034;-82
2023/06/05 11:16:50;;;;;;;6.63;5.03;;;26.20;99.90;;;;;;4979179;28;20105;-82
2023/06/05 11:19:20;;;;;;;8.85;5.10;;;26.50;99.90;;;;;;4978648;28;20499;-82
2023/06/05 11:22:11;;;;;;;7.13;4.97;;;26.60;99.90;;;;;;4979735;28;20072;-82
2023/06/05 11:24:37;;;;;;;8.63;5.13;;;26.50;99.90;;;;;;4979259;28;20530;-82
2023/06/05 11:27:05;;;;;;;10.07;5.18;;;26.50;99.90;;;;;;4978968;28;21470;-81
2023/06/05 11:29:31;;;;;;;8.38;5.50;;;26.50;99.90;;;;;;4980206;28;21516;-82
2023/06/05 11:31:57;;;;;;;9.20;5.47;;;26.40;99.90;;;;;;4980158;28;20069;-82
2023/06/05 11:34:23;;;;;;;8.60;5.10;;;26.30;99.90;;;;;;4978933;28;20125;-82
2023/06/05 11:36:49;;;;;;;7.10;5.07;;;26.10;99.90;;;;;;4977445;28;20066;-82
2023/06/05 11:39:14;;;;;;;8.00;5.15;;;26.20;99.90;;;;;;4979499;28;20031;-82
2023/06/05 11:41:45;;;;;;;6.90;4.55;;;26.60;99.90;;;;;;4979486;28;20099;-81
2023/06/05 11:44:11;;;;;;;9.55;4.95;;;26.80;99.90;;;;;;4978903;28;20041;-81
2023/06/05 11:46:42;;;;;;;8.65;5.15;;;27.10;99.90;;;;;;4974459;28;20045;-81
2023/06/05 11:49:25;;;;;;;7.32;5.10;;;27.10;99.90;;;;;;4977540;28;20045;-83
2023/06/05 11:51:51;;;;;;;7.20;5.50;;;26.80;99.90;;;;;;4980217;28;20045;-82
2023/06/05 11:54:40;;;;;;;8.98;5.88;;;26.10;99.90;;;;;;4977092;28;21165;-82
2023/06/05 11:57:10;;;;;;;9.48;5.30;;;25.50;99.90;;;;;;4977888;28;20046;-83
2023/06/05 11:59:37;;;;;;;6.57;5.20;;;25.20;99.90;;;;;;4976574;28;20042;-82
2023/06/05 12:02:04;;;;;;;7.05;5.00;;;25.30;99.90;;;;;;4980636;28;20045;-83
2023/06/05 12:04:31;;;;;;;7.28;5.38;;;25.40;99.90;;;;;;4980776;28;21529;-81
2023/06/05 12:06:59;;;;;;;8.68;5.50;;;25.30;99.90;;;;;;4981046;28;20030;-80
2023/06/05 12:09:25;;;;;;;7.85;5.07;;;25.20;99.90;;;;;;4980889;28;20061;-82
2023/06/05 12:11:51;;;;;;;8.32;5.30;;;25.50;99.90;;;;;;4980980;28;20427;-82
2023/06/05 12:14:30;;;;;;;9.18;4.80;;;25.70;99.90;;;;;;4981587;28;20034;-82
2023/06/05 12:16:56;;;;;;;11.77;5.15;;;25.60;99.90;;;;;;4982403;28;20036;-81
2023/06/05 12:19:22;;;;;;;7.07;5.20;;;25.30;99.90;;;;;;4981062;28;20030;-81
2023/06/05 12:21:50;;;;;;;8.75;5.10;;;25.00;99.90;;;;;;4978604;28;20044;-75
2023/06/05 12:24:28;;;;;;;6.78;5.00;;;24.80;99.90;;;;;;4975341;28;20026;-74
2023/06/05 12:27:03;;;;;;;8.32;5.10;;;24.90;99.90;;;;;;4972906;28;20057;-75
2023/06/05 12:29:31;;;;;;;9.00;5.10;;;25.00;99.90;;;;;;4972973;28;20030;-74
2023/06/05 12:31:59;;;;;;;10.07;5.05;;;25.10;99.90;;;;;;4973199;28;20037;-74
2023/06/05 12:34:50;;;;;;;10.30;5.00;;;25.30;99.90;;;;;;4972091;28;20117;-74
2023/06/05 12:37:44;;;;;;;7.53;4.57;;;25.40;99.90;;;;;;4971729;28;20046;-74
2023/06/05 12:40:11;;;;;;;7.57;5.93;;;25.50;99.90;;;;;;4971750;28;20089;-75
2023/06/05 12:42:39;;;;;;;7.90;5.10;;;26.00;99.90;;;;;;4972285;28;20301;-75
2023/06/05 12:45:06;;;;;;;7.25;5.13;;;26.30;99.90;;;;;;4972654;28;20030;-76